Grand Marais, Minnesota
Current Conditions -  °F | °C
As of 1:01 PM on Thursday 30 Oct 2014 (Local Time) from KCKC Reporting Station
Broken Clouds Broken Clouds  
Wind Chill:   Ceiling: 2100
Heat Index:   Visibility: 5mi
Dew Point: -1°   Wind: 7mph
Humidity: 75%   Direction: 320°NW
Pressure: 30"   Gusts: NA
Location:  47.75°N, 90.33°W
Report Text: KCKC 301801Z AUTO 32006KT 5SM SCT016 BKN021 BKN075 03/M01 A3000 RMK AO2
Loading
Personal Weather Stations






























Interactive Weather Map
Tropical Storm Tracking
New forecast layout! Learn more

10-Day Weather Forecast

Advertisements
Track Severe Weather on mobile